56WI weather

Jaks Field
Mosinee, Wisconsin, United States

Public forecast

Using degrees Fahrenheit for public forecast. Weather courtesy of forecast.io.

METAR (pilot weather report)

Closest report is Central Wisconsin Airport, 3.1 nm (5.8 km) W. Retrieved 2019/08/22 05:35 UTC (0 seconds ago):

KCWA 220535Z AUTO 00000KT 10SM CLR 11/11 A3006 RMK AO2

TAF (pilot weather forecast)

Forecast is more than 12 hours old.

Closest forecast is Central Wisconsin Airport, 3.1 nm (5.8 km) W. Retrieved 2019/08/21 00:39 UTC (1 day ago):

TAF KCWA 212336Z 2200/2224 32005KT P6SM SCT100 FM220500 06003KT P6SM BKN060 FM221600 05006KT P6SM SCT035 BKN060